Terminal Aerodrome Forecast
Issued by NWS

Home | Current Version | Previous Version | Text Only | Print | Product List | Glossary On
Versions: 1 2 3 4 5 6 7 8 9 10 11 12 13 14 15
745
FTUS46 KSEW 221229 AAA
TAFPAE
TAF AMD
KPAE 221229Z 2212/2312 36006KT P6SM SCT010 SCT200
      TEMPO 2213/2216 BKN006
     FM221800 35006KT P6SM SCT050 SCT200
     FM230200 VRB05KT P6SM SCT200
     FM231000 12005KT P6SM SCT120 BKN200=

USA.gov is the U.S. government's official web portal to all federal, state and local government web resources and services.